Judson, TX (75660)

5:36 PM CST on January 19, 2017 (GMT -0600)
Judson B.C. Park | | Change Station
Active Advisory: Flood Warning

Elev 428 ft 32.58 °N, 94.75 °W | Updated 2 seconds ago

Mostly Cloudy
Mostly Cloudy
57.2 °F
Feels Like 57.2 °F
N
2.7
Wind Variable Wind from SSW
Gusts 4.9 mph

Today
High -- | Low -- °F
--% Chance of Precip.
Yesterday
High -- | Low -- °F
Precip. -- in
Pressure 29.72 in
Visibility 10.0 miles
Clouds Mostly Cloudy 1600 ft
Dew Point 52 °F
Humidity 82%
Rainfall 0.00 in
Snow Depth Not available.
7:19 AM 5:40 PM
Waning Gibbous, 50% visible
METAR KGGG 192253Z 20008KT 10SM BKN016 14/12 A2972 RMK AO2 SLP063 T01440122
Pressure 29.72 in
Visibility 10.0 miles
Clouds Mostly Cloudy 1600 ft
Dew Point 52 °F
Humidity 82%
Rainfall 0.00 in
Snow Depth Not available.
7:19 AM 5:40 PM
Waning Gibbous, 50% visible
METAR KGGG 192253Z 20008KT 10SM BKN016 14/12 A2972 RMK AO2 SLP063 T01440122

Get Your Daily Forecast Email!

Thanks for signing up!

Be on the lookout for a verification email in your inbox.

You'll start receiving the daily forecast at 8 AM.

×

10-Day Weather Forecast

Almanac

Astronomy

Jan. 19, 2017 Rise Set
Actual Time
Civil Twilight
Nautical Twilight
Astronomical Twilight
Moon
Length of Visible Light
Length of Day
Tomorrow will be .
, % of the Moon is Illuminated

Today's Extremes

State Highs State Lows

Community

WunderPhotos

Upload Photos

1,962,540 photos uploaded!

WunderBlog® & News

Nearby

Air Quality

  Air Quality AQ Index Pollutant
Not available.

Snow Depth

Station Depth Elevation

Earthquake Activity

City Distance Mag. Time & Date
Minimum magnitude displayed is 2.5.

Coastal Water Temperatures

Place Temperature

Stations

Nearby Weather Stations

Station Location Temp. Windchill Dew Point Humidity Wind Precip. Elev Updated Type
                   

Watches & Warnings

Flood Warning
Issued: 10:17 AM CST Jan. 19, 2017 – National Weather Service

The Flood Warning continues for
the rabbit creek at Kilgore, Texas.
* Until late Saturday night... or until the warning is cancelled.
* At 945 am Thursday the stage was 13.0 feet.
* Minor flooding is occurring and minor flooding is forecast.
* Flood stage is 10 feet.
* Forecast... the creek will continue to fall to below flood stage by
Friday early afternoon. Also the rabbit creek crested at 13.8
feet earlier during the wee hours of this Thursday morning.
* Impact... at 12.0 feet... expect flooded trails and a private boat
launch.


Lat... Lon 3233 9499 3242 9489 3245 9479 3242 9478 3230 9498


Viii.